Akiak, Alaska
Current Conditions -  °F | °C
As of 4:56 AM on Thursday 23 Oct 2014 (Local Time) from PFKW Reporting Station
Overcast Overcast  
Wind Chill: 22°   Ceiling: 1400
Heat Index: 22°   Visibility: 10mi
Dew Point: 21°   Wind: 0mph
Humidity: 96%   Direction: NA
Pressure: 29.97"   Gusts: NA
Location:  60.92°N, 161.23°W
Report Text: PFKW 231256Z AUTO 00000KT 10SM OVC014 M06/M06 A2997 RMK AO2 SNE05 SLP150 P0000 T10561061 FZRANO
Loading
Personal Weather Stations






























Interactive Weather Map New forecast layout! Learn more

10-Day Weather Forecast

Advertisements
Track Severe Weather on mobile